KIPL/IPL METAR and TAF weather

Enter ICAO airport designator
Station Type Date Time Source
KIPL METAR 2020/03/29 14:53 UTC NOAA

KIPL 291453Z AUTO 27008KT 10SM CLR 14/05 A3000 RMK AO2 SLP160 T01390050 53013


Station Type Date Time Source
KIPL Decoded METAR 2020/03/29 14:53 UTC NOAA

Imperial, Imperial County Airport, CA, United States (KIPL) 32-50-03N 115-34-43W -15M
Mar 29, 2020 - 10:53 AM EDT / 2020.03.29 1453 UTC
Wind: from the W (270 degrees) at 9 MPH (8 KT):0
Visibility: 10 mile(s):0
Sky conditions: clear
Temperature: 57.0 F (13.9 C)
Dew Point: 41.0 F (5.0 C)
Relative Humidity: 54%
Pressure (altimeter): 30 in. Hg (1015 hPa)
Pressure tendency: 0.04 inches (1.3 hPa) higher than three hours ago
ob: KIPL 291453Z AUTO 27008KT 10SM CLR 14/05 A3000 RMK AO2 SLP160 T01390050 53013
cycle: 15

Station Type Date Time Source
KIPL TAF 2020/03/29 12:22 UTC NOAA

TAF KIPL 291120Z 2912/3012 28007KT P6SM FEW200
FM292100 27012G18KT P6SM SKC
FM300000 29018G27KT P6SM SKC
FM300600 27008KT P6SM SKC

Example: see airport list